Time;durP1;ratioP1;P1;durP2;ratioP2;P2;SDS_P1;SDS_P2;PMS_P1;PMS_P2;Temp;Humidity;BMP_temperature;BMP_pressure;BME280_temperature;BME280_humidity;BME280_pressure;Samples;Min_cycle;Max_cycle;Signal;HPM_P1;HPM_P2
2023/02/07 00:00:24;;;;;;;5.97;4.37;;;;;;;;;;5054220;28;20206;-84
2023/02/07 00:02:54;;;;;;;5.10;3.30;;;;;;;;;;5067221;28;20707;-84
2023/02/07 00:05:21;;;;;;;4.17;2.83;;;;;;;;;;5054144;28;20275;-85
2023/02/07 00:07:48;;;;;;;4.90;4.20;;;;;;;;;;5047871;28;20205;-84
2023/02/07 00:10:16;;;;;;;6.67;4.20;;;;;;;;;;5060709;28;20513;-85
2023/02/07 00:12:43;;;;;;;3.90;3.50;;;;;;;;;;5066888;28;20201;-83
2023/02/07 00:15:11;;;;;;;5.30;4.73;;;;;;;;;;5067671;28;20699;-84
2023/02/07 00:17:38;;;;;;;6.47;4.17;;;;;;;;;;5066884;28;20634;-83
2023/02/07 00:20:06;;;;;;;5.43;4.03;;;;;;;;;;5055112;28;20212;-83
2023/02/07 00:22:33;;;;;;;5.20;3.40;;;;;;;;;;5073870;28;20596;-83
2023/02/07 00:25:00;;;;;;;3.83;3.53;;;;;;;;;;5072358;28;20318;-83
2023/02/07 00:27:26;;;;;;;4.00;3.57;;;;;;;;;;5054033;28;20202;-84
2023/02/07 00:29:53;;;;;;;4.03;3.40;;;;;;;;;;5053713;28;20592;-84
2023/02/07 00:32:21;;;;;;;4.90;4.50;;;;;;;;;;5053912;28;20217;-84
2023/02/07 00:34:49;;;;;;;5.87;4.17;;;;;;;;;;5068708;28;20443;-84
2023/02/07 00:37:16;;;;;;;5.10;3.90;;;;;;;;;;5064767;28;20458;-84
2023/02/07 00:39:43;;;;;;;3.80;3.43;;;;;;;;;;5067304;28;20209;-84
2023/02/07 00:42:10;;;;;;;5.07;3.43;;;;;;;;;;5063048;28;20240;-84
2023/02/07 00:44:36;;;;;;;4.83;3.53;;;;;;;;;;5073657;28;20208;-84
2023/02/07 00:47:03;;;;;;;5.60;4.53;;;;;;;;;;5063019;28;20838;-84
2023/02/07 00:49:31;;;;;;;7.00;4.67;;;;;;;;;;5057139;28;20296;-83
2023/02/07 00:51:58;;;;;;;6.27;4.03;;;;;;;;;;5063519;28;20202;-84
2023/02/07 00:54:25;;;;;;;5.77;4.10;;;;;;;;;;5069984;28;20209;-84
2023/02/07 00:56:52;;;;;;;5.73;3.77;;;;;;;;;;5062708;28;20463;-84
2023/02/07 00:59:18;;;;;;;5.03;4.30;;;;;;;;;;5070654;28;20212;-84
2023/02/07 01:01:45;;;;;;;4.47;3.77;;;;;;;;;;5062394;28;20209;-84
2023/02/07 01:04:12;;;;;;;6.17;4.80;;;;;;;;;;5053380;28;20585;-83
2023/02/07 01:06:40;;;;;;;4.63;4.13;;;;;;;;;;5053197;28;20844;-84
2023/02/07 01:09:07;;;;;;;5.23;4.07;;;;;;;;;;5053132;28;20201;-84
2023/02/07 01:11:34;;;;;;;4.83;4.30;;;;;;;;;;5064219;28;20209;-84
2023/02/07 01:14:01;;;;;;;5.87;3.83;;;;;;;;;;5072585;28;20459;-84
2023/02/07 01:16:30;;;;;;;3.73;3.43;;;;;;;;;;5072780;28;20272;-84
2023/02/07 01:18:57;;;;;;;4.27;3.43;;;;;;;;;;5054280;28;20210;-83
2023/02/07 01:21:25;;;;;;;5.00;4.37;;;;;;;;;;5052776;28;20202;-84
2023/02/07 01:23:55;;;;;;;4.47;3.70;;;;;;;;;;5052971;28;20244;-83
2023/02/07 01:26:23;;;;;;;3.50;3.20;;;;;;;;;;5052383;28;20212;-82
2023/02/07 01:28:49;;;;;;;4.10;3.63;;;;;;;;;;5051948;28;20464;-84
2023/02/07 01:31:16;;;;;;;4.23;3.33;;;;;;;;;;5053103;28;20217;-84
2023/02/07 01:33:43;;;;;;;5.23;4.03;;;;;;;;;;5052936;28;20217;-84
2023/02/07 01:36:12;;;;;;;4.57;3.43;;;;;;;;;;5065274;28;20213;-83
2023/02/07 01:38:39;;;;;;;5.23;4.73;;;;;;;;;;5052639;28;20205;-84
2023/02/07 01:41:07;;;;;;;4.93;4.00;;;;;;;;;;5052312;28;20604;-83
2023/02/07 01:43:34;;;;;;;6.77;3.57;;;;;;;;;;5052439;28;20229;-84
2023/02/07 01:46:01;;;;;;;5.17;4.13;;;;;;;;;;5051950;28;20210;-84
2023/02/07 01:48:30;;;;;;;4.27;3.10;;;;;;;;;;5052494;28;20451;-84
2023/02/07 01:51:02;;;;;;;6.67;4.10;;;;;;;;;;5052288;28;20284;-84
2023/02/07 01:53:30;;;;;;;7.17;3.73;;;;;;;;;;5052251;28;20209;-83
2023/02/07 01:56:03;;;;;;;5.47;4.00;;;;;;;;;;5054973;28;20205;-83
2023/02/07 01:58:33;;;;;;;5.30;3.27;;;;;;;;;;5071840;28;20509;-83
2023/02/07 02:01:01;;;;;;;4.63;3.60;;;;;;;;;;5054694;28;20216;-84
2023/02/07 02:03:28;;;;;;;6.13;3.97;;;;;;;;;;5062462;28;20231;-84
2023/02/07 02:05:55;;;;;;;4.97;4.20;;;;;;;;;;5058500;28;20608;-84
2023/02/07 02:08:24;;;;;;;9.17;4.30;;;;;;;;;;5060896;28;20201;-84
2023/02/07 02:11:02;;;;;;;4.17;3.73;;;;;;;;;;5057220;28;20450;-84
2023/02/07 02:13:37;;;;;;;5.17;4.00;;;;;;;;;;5058068;28;20197;-85
2023/02/07 02:16:09;;;;;;;6.60;4.30;;;;;;;;;;5051778;28;20255;-83
2023/02/07 02:18:45;;;;;;;4.80;3.90;;;;;;;;;;5051363;28;20206;-83
2023/02/07 02:22:03;;;;;;;5.90;4.23;;;;;;;;;;5062379;28;20496;-83
2023/02/07 02:25:00;;;;;;;4.43;3.47;;;;;;;;;;5071345;28;20716;-83
2023/02/07 02:27:40;;;;;;;6.70;4.50;;;;;;;;;;5063063;28;20971;-84
2023/02/07 02:30:41;;;;;;;4.77;3.90;;;;;;;;;;5064666;28;20201;-83
2023/02/07 02:33:31;;;;;;;5.30;3.33;;;;;;;;;;5037577;28;20471;-84
2023/02/07 02:36:04;;;;;;;4.57;3.33;;;;;;;;;;5046940;28;20209;-83
2023/02/07 02:38:35;;;;;;;6.43;3.83;;;;;;;;;;5037671;28;20228;-84
2023/02/07 02:41:06;;;;;;;4.10;3.70;;;;;;;;;;5051248;28;20206;-85
2023/02/07 02:43:37;;;;;;;5.43;4.17;;;;;;;;;;5051241;28;20294;-83
2023/02/07 02:46:07;;;;;;;3.67;3.27;;;;;;;;;;5055848;28;20511;-84
2023/02/07 02:48:36;;;;;;;4.07;3.67;;;;;;;;;;5057133;28;20448;-84
2023/02/07 02:51:04;;;;;;;4.37;3.47;;;;;;;;;;5060012;28;20232;-83
2023/02/07 02:53:31;;;;;;;4.40;3.67;;;;;;;;;;5062716;28;20205;-83
2023/02/07 02:56:12;;;;;;;3.77;2.87;;;;;;;;;;5061476;28;20209;-83
2023/02/07 02:58:51;;;;;;;5.10;3.37;;;;;;;;;;5059933;28;20234;-83
2023/02/07 03:01:23;;;;;;;4.10;3.50;;;;;;;;;;5057035;28;20201;-82
2023/02/07 03:04:03;;;;;;;4.43;2.97;;;;;;;;;;5058978;28;20229;-84
2023/02/07 03:06:38;;;;;;;5.90;3.67;;;;;;;;;;5052990;28;20233;-83
2023/02/07 03:09:16;;;;;;;5.33;3.50;;;;;;;;;;5066341;28;20212;-83
2023/02/07 03:11:55;;;;;;;4.97;4.00;;;;;;;;;;5058599;28;20444;-83
2023/02/07 03:14:28;;;;;;;4.43;4.03;;;;;;;;;;5058506;28;20255;-83
2023/02/07 03:16:59;;;;;;;4.93;3.77;;;;;;;;;;5069618;28;20205;-83
2023/02/07 03:19:29;;;;;;;4.17;3.67;;;;;;;;;;5050997;28;20202;-84
2023/02/07 03:21:58;;;;;;;5.80;3.43;;;;;;;;;;5064190;28;20590;-84
2023/02/07 03:24:27;;;;;;;4.67;3.97;;;;;;;;;;5050876;28;20236;-83
2023/02/07 03:26:57;;;;;;;3.47;3.10;;;;;;;;;;5064371;28;20198;-83
2023/02/07 03:29:24;;;;;;;7.03;4.20;;;;;;;;;;5058881;28;20570;-79
2023/02/07 03:31:54;;;;;;;4.83;4.27;;;;;;;;;;5066625;28;20208;-78
2023/02/07 03:34:23;;;;;;;4.07;3.60;;;;;;;;;;5070323;28;20212;-79
2023/02/07 03:36:56;;;;;;;5.63;3.57;;;;;;;;;;5056538;28;20463;-77
2023/02/07 03:39:22;;;;;;;7.33;3.97;;;;;;;;;;5069101;28;20208;-77
2023/02/07 03:41:52;;;;;;;5.03;3.87;;;;;;;;;;5069862;28;20207;-78
2023/02/07 03:44:21;;;;;;;5.50;3.97;;;;;;;;;;5070324;28;20638;-77
2023/02/07 03:46:49;;;;;;;4.70;3.47;;;;;;;;;;5069778;28;20208;-77
2023/02/07 03:49:16;;;;;;;4.90;3.97;;;;;;;;;;5069591;28;20193;-77
2023/02/07 03:51:45;;;;;;;4.57;4.03;;;;;;;;;;5072125;28;20208;-78
2023/02/07 03:54:14;;;;;;;5.97;4.07;;;;;;;;;;5060338;28;20201;-78
2023/02/07 03:56:41;;;;;;;3.93;3.20;;;;;;;;;;5074023;28;20205;-77
2023/02/07 03:59:08;;;;;;;5.00;3.80;;;;;;;;;;5060144;28;20205;-77
2023/02/07 04:01:39;;;;;;;5.57;3.70;;;;;;;;;;5073631;28;20209;-77
2023/02/07 04:04:06;;;;;;;7.10;3.90;;;;;;;;;;5072643;28;20221;-78
2023/02/07 04:06:33;;;;;;;4.33;3.47;;;;;;;;;;5073960;28;20675;-78
2023/02/07 04:09:00;;;;;;;3.87;3.33;;;;;;;;;;5069280;28;20209;-78
2023/02/07 04:11:28;;;;;;;5.17;3.90;;;;;;;;;;5063983;28;20201;-77
2023/02/07 04:13:55;;;;;;;4.43;3.63;;;;;;;;;;5069205;28;20212;-78
2023/02/07 04:16:22;;;;;;;3.87;3.47;;;;;;;;;;5063833;28;21057;-81
2023/02/07 04:18:49;;;;;;;5.47;4.60;;;;;;;;;;5073537;28;20212;-79
2023/02/07 04:21:16;;;;;;;3.77;3.20;;;;;;;;;;5062960;28;20206;-80
2023/02/07 04:23:43;;;;;;;4.47;3.30;;;;;;;;;;5050618;28;20228;-80
2023/02/07 04:26:09;;;;;;;7.97;5.73;;;;;;;;;;5063285;28;20201;-80
2023/02/07 04:28:37;;;;;;;5.77;3.27;;;;;;;;;;5057393;28;20198;-80
2023/02/07 04:31:05;;;;;;;6.57;4.27;;;;;;;;;;5063388;28;20208;-79
2023/02/07 04:33:32;;;;;;;9.80;4.23;;;;;;;;;;5060510;28;20217;-79
2023/02/07 04:36:00;;;;;;;4.77;3.63;;;;;;;;;;5062887;28;20224;-79
2023/02/07 04:38:28;;;;;;;4.50;4.10;;;;;;;;;;5053582;28;20228;-80
2023/02/07 04:40:58;;;;;;;7.37;4.73;;;;;;;;;;5053843;28;20206;-80
2023/02/07 04:43:25;;;;;;;6.67;4.83;;;;;;;;;;5052853;28;20237;-80
2023/02/07 04:45:53;;;;;;;7.57;3.47;;;;;;;;;;5065504;28;20216;-80
2023/02/07 04:48:20;;;;;;;5.30;3.97;;;;;;;;;;5054029;28;20202;-80
2023/02/07 04:50:47;;;;;;;3.93;3.47;;;;;;;;;;5065522;28;20209;-80
2023/02/07 04:53:14;;;;;;;4.67;3.70;;;;;;;;;;5067001;28;20213;-81
2023/02/07 04:55:41;;;;;;;6.17;3.80;;;;;;;;;;5066150;28;20638;-81
2023/02/07 04:58:08;;;;;;;4.70;3.83;;;;;;;;;;5052835;28;20994;-79
2023/02/07 05:00:37;;;;;;;10.17;3.93;;;;;;;;;;5052004;28;20601;-80
2023/02/07 05:03:05;;;;;;;4.20;3.60;;;;;;;;;;5052694;28;20213;-82
2023/02/07 05:05:32;;;;;;;4.40;4.00;;;;;;;;;;5052239;28;20241;-79
2023/02/07 05:07:58;;;;;;;3.67;3.30;;;;;;;;;;5052072;28;20255;-81
2023/02/07 05:10:25;;;;;;;6.77;4.03;;;;;;;;;;5051696;28;21685;-80
2023/02/07 05:12:52;;;;;;;4.87;3.77;;;;;;;;;;5055848;28;20464;-81
2023/02/07 05:15:18;;;;;;;4.00;3.20;;;;;;;;;;5063539;28;20725;-82
2023/02/07 05:17:45;;;;;;;6.03;4.10;;;;;;;;;;5050673;28;20206;-81
2023/02/07 05:20:14;;;;;;;4.83;3.80;;;;;;;;;;5049833;28;20209;-81
2023/02/07 05:22:40;;;;;;;4.00;3.67;;;;;;;;;;5060121;28;20276;-80
2023/02/07 05:25:08;;;;;;;5.20;3.80;;;;;;;;;;5068875;28;20221;-80
2023/02/07 05:27:34;;;;;;;5.10;4.10;;;;;;;;;;5069910;28;20205;-80
2023/02/07 05:30:01;;;;;;;5.10;3.37;;;;;;;;;;5071808;28;20462;-80
2023/02/07 05:35:13;;;;;;;4.17;3.60;;;;;;;;;;5058165;28;20762;-81
2023/02/07 05:37:40;;;;;;;4.27;3.60;;;;;;;;;;5052330;28;20448;-80
2023/02/07 05:40:07;;;;;;;5.10;4.30;;;;;;;;;;5068554;28;20447;-80
2023/02/07 05:42:34;;;;;;;4.10;3.60;;;;;;;;;;5051023;28;21347;-81
2023/02/07 05:45:01;;;;;;;3.97;3.53;;;;;;;;;;5054897;28;21336;-80
2023/02/07 05:47:28;;;;;;;3.67;3.13;;;;;;;;;;5063980;28;20458;-80
2023/02/07 05:49:54;;;;;;;4.43;3.90;;;;;;;;;;5070484;28;20451;-80
2023/02/07 05:52:23;;;;;;;7.33;6.07;;;;;;;;;;5070525;28;20454;-81
2023/02/07 05:54:49;;;;;;;5.13;4.13;;;;;;;;;;5045094;28;20875;-80
2023/02/07 05:57:16;;;;;;;3.57;3.27;;;;;;;;;;5070789;28;20623;-81
2023/02/07 05:59:43;;;;;;;4.93;3.23;;;;;;;;;;5071412;28;20442;-80
2023/02/07 06:02:10;;;;;;;6.40;3.80;;;;;;;;;;5070451;28;20208;-80
2023/02/07 06:04:36;;;;;;;5.83;3.77;;;;;;;;;;5064376;28;20247;-80
2023/02/07 06:07:04;;;;;;;4.77;4.37;;;;;;;;;;5065898;28;20462;-80
2023/02/07 06:09:32;;;;;;;5.27;4.47;;;;;;;;;;5071242;28;20470;-80
2023/02/07 06:11:58;;;;;;;4.23;3.87;;;;;;;;;;5071250;28;20443;-80
2023/02/07 06:14:25;;;;;;;5.87;4.90;;;;;;;;;;5071216;28;20202;-80
2023/02/07 06:16:52;;;;;;;7.27;3.90;;;;;;;;;;5070358;28;20447;-80
2023/02/07 06:19:19;;;;;;;5.57;4.20;;;;;;;;;;5071257;28;20455;-80
2023/02/07 06:21:45;;;;;;;4.93;3.97;;;;;;;;;;5069752;28;20455;-81
2023/02/07 06:24:12;;;;;;;3.83;3.53;;;;;;;;;;5059249;28;20226;-80
2023/02/07 06:26:40;;;;;;;6.30;4.23;;;;;;;;;;5069295;28;20474;-81
2023/02/07 06:29:07;;;;;;;9.47;4.53;;;;;;;;;;5060020;28;20193;-80
2023/02/07 06:31:34;;;;;;;16.07;11.30;;;;;;;;;;5070521;28;20451;-81
2023/02/07 06:34:00;;;;;;;31.07;18.40;;;;;;;;;;5071029;28;20209;-80
2023/02/07 06:36:27;;;;;;;11.50;9.57;;;;;;;;;;5070561;28;20197;-81
2023/02/07 06:38:54;;;;;;;8.57;7.30;;;;;;;;;;5071287;28;20201;-81
2023/02/07 06:41:21;;;;;;;4.80;4.30;;;;;;;;;;5071044;28;20565;-81
2023/02/07 06:43:49;;;;;;;6.90;4.80;;;;;;;;;;5070649;28;20603;-81
2023/02/07 06:46:16;;;;;;;3.80;3.17;;;;;;;;;;5070584;28;20279;-81
2023/02/07 06:48:43;;;;;;;4.40;3.30;;;;;;;;;;5061062;28;20436;-81
2023/02/07 06:51:10;;;;;;;4.47;3.73;;;;;;;;;;5053810;28;20443;-81
2023/02/07 06:53:37;;;;;;;5.63;3.80;;;;;;;;;;5060846;28;20944;-81
2023/02/07 06:56:04;;;;;;;3.70;3.40;;;;;;;;;;5064002;28;20201;-81
2023/02/07 06:58:31;;;;;;;6.50;5.87;;;;;;;;;;5061826;28;20197;-81
2023/02/07 07:01:01;;;;;;;5.87;3.77;;;;;;;;;;5057626;28;20578;-81
2023/02/07 07:03:28;;;;;;;6.03;4.63;;;;;;;;;;5070658;28;20208;-81
2023/02/07 07:05:55;;;;;;;6.30;5.17;;;;;;;;;;5070071;28;20491;-81
2023/02/07 07:08:21;;;;;;;5.60;4.43;;;;;;;;;;5070804;28;20585;-81
2023/02/07 07:10:48;;;;;;;6.67;5.60;;;;;;;;;;5070519;28;20435;-81
2023/02/07 07:13:15;;;;;;;5.93;5.27;;;;;;;;;;5071099;28;20205;-81
2023/02/07 07:15:42;;;;;;;4.77;4.17;;;;;;;;;;5065380;28;20201;-81
2023/02/07 07:18:10;;;;;;;5.37;4.70;;;;;;;;;;5062716;28;20204;-81
2023/02/07 07:20:37;;;;;;;4.93;3.73;;;;;;;;;;5070423;28;20207;-81
2023/02/07 07:23:03;;;;;;;4.73;4.13;;;;;;;;;;5070500;28;20381;-81
2023/02/07 07:25:30;;;;;;;4.70;4.10;;;;;;;;;;5071066;28;20239;-82
2023/02/07 07:27:57;;;;;;;4.90;4.00;;;;;;;;;;5074908;28;20205;-82
2023/02/07 07:30:27;;;;;;;5.73;3.97;;;;;;;;;;5067822;28;20221;-83
2023/02/07 07:32:54;;;;;;;4.40;3.83;;;;;;;;;;5067963;28;20209;-84
2023/02/07 07:35:22;;;;;;;3.87;3.47;;;;;;;;;;5074206;28;20668;-84
2023/02/07 07:37:49;;;;;;;7.27;4.57;;;;;;;;;;5074758;28;20201;-84
2023/02/07 07:40:16;;;;;;;4.10;3.80;;;;;;;;;;5074708;28;20205;-85
2023/02/07 07:42:43;;;;;;;4.60;4.20;;;;;;;;;;5061154;28;20210;-85
2023/02/07 07:45:12;;;;;;;5.03;3.73;;;;;;;;;;5074256;28;20225;-84
2023/02/07 07:47:39;;;;;;;6.00;4.10;;;;;;;;;;5058935;28;20206;-84
2023/02/07 07:50:07;;;;;;;4.20;3.67;;;;;;;;;;5062536;28;20216;-84
2023/02/07 07:52:35;;;;;;;6.37;3.93;;;;;;;;;;5058984;28;20606;-84
2023/02/07 07:55:02;;;;;;;5.47;3.77;;;;;;;;;;5054602;28;20209;-84
2023/02/07 07:57:29;;;;;;;4.27;3.47;;;;;;;;;;5069954;28;20201;-84
2023/02/07 07:59:56;;;;;;;5.83;4.63;;;;;;;;;;5065491;28;20213;-84
2023/02/07 08:02:23;;;;;;;4.83;4.20;;;;;;;;;;5070170;28;20212;-84
2023/02/07 08:04:50;;;;;;;4.97;3.60;;;;;;;;;;5074103;28;20237;-84
2023/02/07 08:07:16;;;;;;;5.07;3.87;;;;;;;;;;5060407;28;20688;-83
2023/02/07 08:09:45;;;;;;;5.07;3.63;;;;;;;;;;5074255;28;20307;-85
2023/02/07 08:12:11;;;;;;;4.57;3.73;;;;;;;;;;5071045;28;20205;-84
2023/02/07 08:14:38;;;;;;;5.07;4.47;;;;;;;;;;5053726;28;20684;-84
2023/02/07 08:17:06;;;;;;;4.33;3.37;;;;;;;;;;5053566;28;20459;-83
2023/02/07 08:19:33;;;;;;;4.43;3.73;;;;;;;;;;5064137;28;20205;-84
2023/02/07 08:21:59;;;;;;;6.23;4.33;;;;;;;;;;5056666;28;20205;-84
2023/02/07 08:24:27;;;;;;;4.97;4.03;;;;;;;;;;5064435;28;20213;-84
2023/02/07 08:26:55;;;;;;;5.93;4.07;;;;;;;;;;5060625;28;20221;-84
2023/02/07 08:29:22;;;;;;;5.00;4.20;;;;;;;;;;5062543;28;20210;-85
2023/02/07 08:31:49;;;;;;;6.07;4.13;;;;;;;;;;5071561;28;20201;-84
2023/02/07 08:34:17;;;;;;;7.20;5.03;;;;;;;;;;5074042;28;20209;-84
2023/02/07 08:36:44;;;;;;;4.77;4.17;;;;;;;;;;5055288;28;20229;-84
2023/02/07 08:39:11;;;;;;;5.53;4.20;;;;;;;;;;5053657;28;20206;-83
2023/02/07 08:41:37;;;;;;;5.47;4.20;;;;;;;;;;5066940;28;20209;-84
2023/02/07 08:44:06;;;;;;;8.33;4.70;;;;;;;;;;5065247;28;20296;-84
2023/02/07 08:46:32;;;;;;;4.03;3.63;;;;;;;;;;5067170;28;20226;-83
2023/02/07 08:48:59;;;;;;;4.67;4.23;;;;;;;;;;5053223;28;20201;-84
2023/02/07 08:51:26;;;;;;;5.17;3.83;;;;;;;;;;5066419;28;20213;-85
2023/02/07 08:53:53;;;;;;;4.40;3.90;;;;;;;;;;5053396;28;20197;-85
2023/02/07 08:56:22;;;;;;;7.50;5.20;;;;;;;;;;5072196;28;20208;-84
2023/02/07 08:58:49;;;;;;;4.03;3.63;;;;;;;;;;5073106;28;20229;-84
2023/02/07 09:01:17;;;;;;;4.27;3.87;;;;;;;;;;5059499;28;20193;-84
2023/02/07 09:03:44;;;;;;;6.10;4.33;;;;;;;;;;5073164;28;20205;-83
2023/02/07 09:06:11;;;;;;;4.70;3.80;;;;;;;;;;5065946;28;20241;-84
2023/02/07 09:08:37;;;;;;;8.27;5.70;;;;;;;;;;5053834;28;20669;-84
2023/02/07 09:11:05;;;;;;;6.47;5.00;;;;;;;;;;5072758;28;20197;-83
2023/02/07 09:13:32;;;;;;;5.63;3.37;;;;;;;;;;5072264;28;20212;-84
2023/02/07 09:15:59;;;;;;;4.83;3.27;;;;;;;;;;5052892;28;20206;-84
2023/02/07 09:18:27;;;;;;;5.73;4.53;;;;;;;;;;5053395;28;20212;-84
2023/02/07 09:20:54;;;;;;;4.23;3.13;;;;;;;;;;5072752;28;20212;-84
2023/02/07 09:23:21;;;;;;;7.40;5.47;;;;;;;;;;5072782;28;20209;-85
2023/02/07 09:25:49;;;;;;;10.40;6.67;;;;;;;;;;5064840;28;20236;-83
2023/02/07 09:28:16;;;;;;;11.63;8.40;;;;;;;;;;5067195;28;20208;-84
2023/02/07 09:30:44;;;;;;;9.93;4.67;;;;;;;;;;5072341;28;20276;-84
2023/02/07 09:33:11;;;;;;;6.10;5.47;;;;;;;;;;5057643;28;20557;-84
2023/02/07 09:35:41;;;;;;;5.40;4.83;;;;;;;;;;5052536;28;20213;-85
2023/02/07 09:38:09;;;;;;;9.50;6.90;;;;;;;;;;5067416;28;20213;-84
2023/02/07 09:40:36;;;;;;;8.03;7.17;;;;;;;;;;5062984;28;20764;-84
2023/02/07 09:43:10;;;;;;;5.40;4.20;;;;;;;;;;5055187;28;20591;-84
2023/02/07 09:45:41;;;;;;;4.40;3.30;;;;;;;;;;5061174;28;20733;-84
2023/02/07 09:48:20;;;;;;;5.43;4.37;;;;;;;;;;5064570;28;20210;-84
2023/02/07 09:50:51;;;;;;;6.70;4.50;;;;;;;;;;5051737;28;20206;-84
2023/02/07 09:53:24;;;;;;;4.50;4.03;;;;;;;;;;5052520;28;20292;-84
2023/02/07 09:55:54;;;;;;;4.90;3.73;;;;;;;;;;5053828;28;20248;-86
2023/02/07 09:58:27;;;;;;;3.97;3.57;;;;;;;;;;5063178;28;20194;-83
2023/02/07 10:00:59;;;;;;;6.17;4.00;;;;;;;;;;5068699;28;20207;-83
2023/02/07 10:03:28;;;;;;;4.20;3.73;;;;;;;;;;5071746;28;20687;-83
2023/02/07 10:05:59;;;;;;;6.47;5.77;;;;;;;;;;5057897;28;20242;-83
2023/02/07 10:08:26;;;;;;;4.40;4.00;;;;;;;;;;5059901;28;20615;-82
2023/02/07 10:11:07;;;;;;;4.80;4.23;;;;;;;;;;5064496;28;20589;-83
2023/02/07 10:13:44;;;;;;;5.10;4.30;;;;;;;;;;5064983;28;20576;-83
2023/02/07 10:16:21;;;;;;;5.60;3.90;;;;;;;;;;5060303;28;20197;-83
2023/02/07 10:18:50;;;;;;;5.10;3.90;;;;;;;;;;5054332;28;20205;-82
2023/02/07 10:21:27;;;;;;;4.67;4.07;;;;;;;;;;5051889;28;20561;-82
2023/02/07 10:24:07;;;;;;;5.20;3.80;;;;;;;;;;5051209;28;20209;-82
2023/02/07 10:26:37;;;;;;;6.10;4.07;;;;;;;;;;5051418;28;20233;-82
2023/02/07 10:29:18;;;;;;;8.20;6.20;;;;;;;;;;5070972;28;20201;-81
2023/02/07 10:31:48;;;;;;;4.17;3.40;;;;;;;;;;5070591;28;20205;-81
2023/02/07 10:34:17;;;;;;;3.57;3.27;;;;;;;;;;5070825;28;20213;-80
2023/02/07 10:36:48;;;;;;;2.97;2.77;;;;;;;;;;5070695;28;20197;-80
2023/02/07 10:39:18;;;;;;;5.47;3.57;;;;;;;;;;5071081;28;20296;-80
2023/02/07 10:41:45;;;;;;;3.30;3.00;;;;;;;;;;5070508;28;20205;-80
2023/02/07 10:44:14;;;;;;;4.70;4.13;;;;;;;;;;5071283;28;20201;-80
2023/02/07 10:46:44;;;;;;;3.57;3.27;;;;;;;;;;5070530;28;20224;-80
2023/02/07 10:49:18;;;;;;;4.23;3.77;;;;;;;;;;5071008;28;20287;-80
2023/02/07 10:51:47;;;;;;;4.70;4.27;;;;;;;;;;5070586;28;20208;-80
2023/02/07 10:54:15;;;;;;;5.40;3.93;;;;;;;;;;5070496;28;20201;-81
2023/02/07 10:56:43;;;;;;;3.40;3.10;;;;;;;;;;5070892;28;20197;-80
2023/02/07 10:59:29;;;;;;;4.00;3.57;;;;;;;;;;5070419;28;20204;-80
2023/02/07 11:01:58;;;;;;;6.63;4.30;;;;;;;;;;5070517;28;20216;-80
2023/02/07 11:04:34;;;;;;;5.00;4.47;;;;;;;;;;5070754;28;20278;-80
2023/02/07 11:07:04;;;;;;;3.37;3.07;;;;;;;;;;5070188;28;20229;-80
2023/02/07 11:09:35;;;;;;;3.70;3.37;;;;;;;;;;5070750;28;20208;-80
2023/02/07 11:12:14;;;;;;;4.00;3.43;;;;;;;;;;5068708;28;20747;-79
2023/02/07 11:14:40;;;;;;;4.93;3.57;;;;;;;;;;5059852;28;20237;-79
2023/02/07 11:17:07;;;;;;;5.20;4.03;;;;;;;;;;5070077;28;20201;-79
2023/02/07 11:19:34;;;;;;;3.80;3.50;;;;;;;;;;5070699;28;20205;-80
2023/02/07 11:22:09;;;;;;;4.57;3.90;;;;;;;;;;5070022;28;20197;-80
2023/02/07 11:24:37;;;;;;;4.67;3.40;;;;;;;;;;5070829;28;20201;-80
2023/02/07 11:27:08;;;;;;;4.77;3.87;;;;;;;;;;5070173;28;20216;-80
2023/02/07 11:29:37;;;;;;;4.57;3.27;;;;;;;;;;5057845;28;20209;-79
2023/02/07 11:32:04;;;;;;;4.37;3.70;;;;;;;;;;5056186;28;20691;-80
2023/02/07 11:34:45;;;;;;;4.23;3.83;;;;;;;;;;5069950;28;20284;-81
2023/02/07 11:37:26;;;;;;;5.60;4.03;;;;;;;;;;5039506;28;20202;-80
2023/02/07 11:39:54;;;;;;;3.73;3.43;;;;;;;;;;5067514;28;20197;-80
2023/02/07 11:42:23;;;;;;;4.67;3.67;;;;;;;;;;5070458;28;20224;-80
2023/02/07 11:44:50;;;;;;;3.53;3.20;;;;;;;;;;5070838;28;20632;-79
2023/02/07 11:47:20;;;;;;;4.00;3.60;;;;;;;;;;5070231;28;20689;-80
2023/02/07 11:49:49;;;;;;;6.13;4.80;;;;;;;;;;5069470;28;20206;-80
2023/02/07 11:52:16;;;;;;;3.50;3.20;;;;;;;;;;5070497;28;20676;-80
2023/02/07 11:54:50;;;;;;;3.47;2.80;;;;;;;;;;5070257;28;20224;-80
2023/02/07 11:57:18;;;;;;;4.10;3.23;;;;;;;;;;5070508;28;20591;-80
2023/02/07 11:59:46;;;;;;;5.17;4.40;;;;;;;;;;5070013;28;20280;-80
2023/02/07 12:02:17;;;;;;;3.50;3.20;;;;;;;;;;5069654;28;20208;-80
2023/02/07 12:04:43;;;;;;;5.10;4.20;;;;;;;;;;5062418;28;20229;-80
2023/02/07 12:07:14;;;;;;;4.47;3.47;;;;;;;;;;5064645;28;20657;-80
2023/02/07 12:09:45;;;;;;;4.80;3.33;;;;;;;;;;5070343;28;20197;-80
2023/02/07 12:12:16;;;;;;;3.37;3.07;;;;;;;;;;5071226;28;20213;-80
2023/02/07 12:14:49;;;;;;;4.07;3.20;;;;;;;;;;5074224;28;20201;-80
2023/02/07 12:17:23;;;;;;;4.50;3.17;;;;;;;;;;5073637;28;20197;-80
2023/02/07 12:19:54;;;;;;;3.07;2.37;;;;;;;;;;5074150;28;20205;-80
2023/02/07 12:22:23;;;;;;;3.93;3.47;;;;;;;;;;5072929;28;20259;-81
2023/02/07 12:24:55;;;;;;;7.13;5.40;;;;;;;;;;5073308;28;20205;-81
2023/02/07 12:27:26;;;;;;;4.70;4.23;;;;;;;;;;5073930;28;20217;-80
2023/02/07 12:29:58;;;;;;;3.50;3.20;;;;;;;;;;5072917;28;20215;-81
2023/02/07 12:32:32;;;;;;;4.20;3.43;;;;;;;;;;5073829;28;20201;-80
2023/02/07 12:35:05;;;;;;;5.57;3.90;;;;;;;;;;5073088;28;20224;-80
2023/02/07 12:37:39;;;;;;;3.07;2.87;;;;;;;;;;5073652;28;20201;-81
2023/02/07 12:40:14;;;;;;;5.43;3.13;;;;;;;;;;5072622;28;20212;-81
2023/02/07 12:42:43;;;;;;;3.83;2.80;;;;;;;;;;5072841;28;20201;-81
2023/02/07 12:45:17;;;;;;;5.23;3.60;;;;;;;;;;5073307;28;20205;-81
2023/02/07 12:47:50;;;;;;;5.00;3.37;;;;;;;;;;5072644;28;20726;-81
2023/02/07 12:50:43;;;;;;;3.70;3.40;;;;;;;;;;5073188;28;20220;-80
2023/02/07 12:53:24;;;;;;;4.70;2.83;;;;;;;;;;5072688;28;20583;-80
2023/02/07 12:56:02;;;;;;;9.17;4.40;;;;;;;;;;5072610;28;20214;-80
2023/02/07 12:58:39;;;;;;;8.37;4.70;;;;;;;;;;5063332;28;20595;-81
2023/02/07 13:01:09;;;;;;;6.10;4.77;;;;;;;;;;5070775;28;20699;-80
2023/02/07 13:03:47;;;;;;;7.80;5.07;;;;;;;;;;5072596;28;20207;-81
2023/02/07 13:06:22;;;;;;;10.13;6.60;;;;;;;;;;5072757;28;20233;-81
2023/02/07 13:08:59;;;;;;;6.93;5.53;;;;;;;;;;5071954;28;20661;-80
2023/02/07 13:11:37;;;;;;;8.43;4.60;;;;;;;;;;5072706;28;20366;-81
2023/02/07 13:14:18;;;;;;;8.33;5.83;;;;;;;;;;5071935;28;20621;-81
2023/02/07 13:16:52;;;;;;;4.97;3.83;;;;;;;;;;5058608;28;20256;-81
2023/02/07 13:19:22;;;;;;;5.17;3.80;;;;;;;;;;5072310;28;20193;-81
2023/02/07 13:21:53;;;;;;;6.20;5.10;;;;;;;;;;5072263;28;20617;-81
2023/02/07 13:24:21;;;;;;;5.33;4.50;;;;;;;;;;5072504;28;20270;-80
2023/02/07 13:26:53;;;;;;;4.47;3.57;;;;;;;;;;5071567;28;20324;-81
2023/02/07 13:29:21;;;;;;;3.60;3.13;;;;;;;;;;5072527;28;20205;-80
2023/02/07 13:31:50;;;;;;;4.47;4.07;;;;;;;;;;5071884;28;20208;-81
2023/02/07 13:34:19;;;;;;;5.40;4.20;;;;;;;;;;5071939;28;20755;-81
2023/02/07 13:36:48;;;;;;;5.57;3.97;;;;;;;;;;5072020;28;20208;-81
2023/02/07 13:39:28;;;;;;;3.87;3.47;;;;;;;;;;5072561;28;20201;-81
2023/02/07 13:42:06;;;;;;;4.27;3.77;;;;;;;;;;5046808;28;20201;-81
2023/02/07 13:44:37;;;;;;;4.17;3.30;;;;;;;;;;5072113;28;20208;-81
2023/02/07 13:47:18;;;;;;;4.40;3.77;;;;;;;;;;5062373;28;20236;-81
2023/02/07 13:49:52;;;;;;;3.20;3.00;;;;;;;;;;5070797;28;20197;-81
2023/02/07 13:52:24;;;;;;;4.83;3.47;;;;;;;;;;5071765;28;20279;-81
2023/02/07 13:54:58;;;;;;;4.50;3.53;;;;;;;;;;5071746;28;20270;-81
2023/02/07 14:00:26;;;;;;;6.60;3.30;;;;;;;;;;5071707;28;20215;-81
2023/02/07 14:02:55;;;;;;;14.17;4.20;;;;;;;;;;5071066;28;20193;-81
2023/02/07 14:05:30;;;;;;;8.83;4.93;;;;;;;;;;5071742;28;20224;-82
2023/02/07 14:08:00;;;;;;;4.30;3.63;;;;;;;;;;5046681;28;20714;-81
2023/02/07 14:10:48;;;;;;;4.93;3.53;;;;;;;;;;5071713;28;20205;-82
2023/02/07 14:13:28;;;;;;;3.70;3.33;;;;;;;;;;5068483;28;20741;-82
2023/02/07 14:15:58;;;;;;;6.50;3.90;;;;;;;;;;5071168;28;20196;-81
2023/02/07 14:18:39;;;;;;;4.03;3.63;;;;;;;;;;5070492;28;20292;-82
2023/02/07 14:21:22;;;;;;;5.90;4.17;;;;;;;;;;5060819;28;20292;-82
2023/02/07 14:23:50;;;;;;;4.23;3.43;;;;;;;;;;5070564;28;20196;-82
2023/02/07 14:26:45;;;;;;;5.50;3.57;;;;;;;;;;5071167;28;20279;-82
2023/02/07 14:30:00;;;;;;;4.00;3.20;;;;;;;;;;5062261;28;20631;-82
2023/02/07 14:32:40;;;;;;;4.23;3.33;;;;;;;;;;5049494;28;20205;-82
2023/02/07 14:35:29;;;;;;;6.53;5.07;;;;;;;;;;5065481;28;20753;-82
2023/02/07 14:38:01;;;;;;;7.27;4.60;;;;;;;;;;5050998;28;20608;-81
2023/02/07 14:40:34;;;;;;;6.87;5.77;;;;;;;;;;5059466;28;20205;-81
2023/02/07 14:43:03;;;;;;;5.70;4.73;;;;;;;;;;5068662;28;20201;-81
2023/02/07 14:45:31;;;;;;;7.13;5.60;;;;;;;;;;5060754;28;20266;-81
2023/02/07 14:47:59;;;;;;;5.30;3.70;;;;;;;;;;5070958;28;20225;-81
2023/02/07 14:50:29;;;;;;;6.07;5.13;;;;;;;;;;5070690;28;20212;-80
2023/02/07 14:52:59;;;;;;;7.40;4.60;;;;;;;;;;5066439;28;20641;-80
2023/02/07 14:55:31;;;;;;;4.90;3.90;;;;;;;;;;5062197;28;20205;-80
2023/02/07 14:57:59;;;;;;;5.67;4.33;;;;;;;;;;5064956;28;20676;-80
2023/02/07 15:00:30;;;;;;;5.47;4.67;;;;;;;;;;5063377;28;20584;-80
2023/02/07 15:03:03;;;;;;;5.97;4.47;;;;;;;;;;5044324;28;20630;-80
2023/02/07 15:05:31;;;;;;;6.90;4.50;;;;;;;;;;5070094;28;20229;-80